Time;durP1;ratioP1;P1;durP2;ratioP2;P2;SDS_P1;SDS_P2;PMS_P1;PMS_P2;Temp;Humidity;BMP_temperature;BMP_pressure;BME280_temperature;BME280_humidity;BME280_pressure;Samples;Min_cycle;Max_cycle;Signal;HPM_P1;HPM_P2
2023/05/31 00:01:14;;;;;;;5.68;5.18;;;;;;;17.90;80.85;95083.84;5005103;28;20308;-62
2023/05/31 00:03:43;;;;;;;6.53;5.55;;;;;;;17.90;80.97;95091.56;5004127;28;20526;-62
2023/05/31 00:06:10;;;;;;;6.97;6.38;;;;;;;17.95;80.61;95092.09;5001540;28;20214;-65
2023/05/31 00:08:36;;;;;;;5.35;4.85;;;;;;;17.92;80.89;95093.09;5016411;28;20241;-64
2023/05/31 00:11:05;;;;;;;6.05;5.65;;;;;;;17.88;80.33;95078.78;5002856;28;20332;-63
2023/05/31 00:13:31;;;;;;;5.20;4.90;;;;;;;17.93;80.50;95087.03;5004384;28;20288;-65
2023/05/31 00:15:58;;;;;;;7.10;5.57;;;;;;;17.85;81.10;95088.44;5006004;28;20243;-63
2023/05/31 00:18:25;;;;;;;7.45;5.47;;;;;;;17.71;81.46;95088.47;5005127;28;20702;-69
2023/05/31 00:20:52;;;;;;;6.82;5.82;;;;;;;17.83;81.14;95092.84;5002731;28;20419;-63
2023/05/31 00:23:18;;;;;;;8.23;6.13;;;;;;;17.84;81.19;95091.91;4999167;28;20229;-64
2023/05/31 00:25:45;;;;;;;10.13;6.20;;;;;;;17.81;81.35;95087.00;4998302;28;21356;-63
2023/05/31 00:28:13;;;;;;;7.32;6.72;;;;;;;17.70;81.88;95086.81;4998497;28;20208;-64
2023/05/31 00:30:40;;;;;;;12.50;6.57;;;;;;;17.65;81.76;95079.38;5000929;28;20378;-64
2023/05/31 00:33:07;;;;;;;6.15;5.65;;;;;;;17.76;81.50;95091.59;5000608;28;20287;-65
2023/05/31 00:35:33;;;;;;;7.20;6.65;;;;;;;17.72;81.76;95092.69;5001243;28;20740;-62
2023/05/31 00:38:04;;;;;;;6.85;6.25;;;;;;;17.73;81.81;95091.75;5004277;28;20886;-64
2023/05/31 00:40:31;;;;;;;6.78;6.13;;;;;;;17.66;82.15;95093.88;5004250;28;20582;-64
2023/05/31 00:42:57;;;;;;;7.90;6.78;;;;;;;17.62;82.47;95093.19;5003299;28;20226;-66
2023/05/31 00:45:25;;;;;;;6.82;6.32;;;;;;;17.60;82.69;95089.06;4999556;28;20781;-64
2023/05/31 00:47:52;;;;;;;7.85;6.80;;;;;;;17.74;82.50;95089.09;4998261;28;20209;-65
2023/05/31 00:50:19;;;;;;;7.22;6.57;;;;;;;17.87;82.12;95095.13;5000959;28;20235;-64
2023/05/31 00:52:49;;;;;;;7.63;5.95;;;;;;;17.93;81.23;95091.38;4999889;28;20256;-64
2023/05/31 00:55:16;;;;;;;6.43;5.93;;;;;;;17.80;81.50;95088.72;5003014;28;20355;-63
2023/05/31 00:57:43;;;;;;;8.25;5.72;;;;;;;17.87;81.31;95099.44;5001988;28;20205;-64
2023/05/31 01:00:11;;;;;;;5.60;5.10;;;;;;;17.86;81.62;95097.78;5003191;28;20355;-64
2023/05/31 01:02:41;;;;;;;5.72;5.28;;;;;;;17.80;81.66;95098.19;5002652;28;20721;-64
2023/05/31 01:05:08;;;;;;;5.70;5.30;;;;;;;17.83;81.63;95095.41;5006006;28;20205;-64
2023/05/31 01:07:35;;;;;;;6.53;5.93;;;;;;;17.90;81.52;95096.69;5002125;28;20261;-64
2023/05/31 01:10:03;;;;;;;6.75;5.75;;;;;;;17.82;81.38;95086.03;4999956;28;20329;-64
2023/05/31 01:12:40;;;;;;;5.93;5.45;;;;;;;17.83;81.40;95096.22;5000291;28;20205;-63
2023/05/31 01:15:12;;;;;;;5.68;5.18;;;;;;;17.86;81.32;95100.38;5000966;28;20335;-65
2023/05/31 01:18:03;;;;;;;5.72;5.40;;;;;;;17.74;81.23;95078.81;5001069;28;20232;-63
2023/05/31 01:20:33;;;;;;;5.95;5.40;;;;;;;17.95;80.75;95099.81;5001508;28;20217;-65
2023/05/31 01:23:11;;;;;;;5.60;5.10;;;;;;;17.95;80.95;95098.06;5004947;28;20229;-64
2023/05/31 01:26:18;;;;;;;6.57;4.95;;;;;;;18.02;80.51;95098.53;4999921;28;20722;-65
2023/05/31 01:28:50;;;;;;;5.70;5.20;;;;;;;17.86;81.25;95096.03;4976376;28;20217;-63
2023/05/31 01:31:21;;;;;;;9.50;4.80;;;;;;;17.75;81.71;95089.94;5006556;28;20663;-63
2023/05/31 01:33:49;;;;;;;6.82;5.88;;;;;;;17.63;82.34;95101.72;5005349;28;20522;-61
2023/05/31 01:36:16;;;;;;;5.70;5.30;;;;;;;17.47;83.19;95093.31;5002835;28;20368;-65
2023/05/31 01:38:43;;;;;;;5.85;5.13;;;;;;;17.48;83.44;95093.22;5002512;28;20203;-65
2023/05/31 01:41:12;;;;;;;5.72;5.40;;;;;;;17.47;83.64;95091.56;5001861;28;20962;-65
2023/05/31 01:43:43;;;;;;;5.80;4.88;;;;;;;17.45;83.89;95087.44;5004717;28;20232;-63
2023/05/31 01:46:13;;;;;;;6.55;5.25;;;;;;;17.53;83.90;95093.78;5004466;28;22026;-64
2023/05/31 01:48:41;;;;;;;5.35;4.95;;;;;;;17.57;84.14;95092.66;5004723;28;20647;-63
2023/05/31 01:51:10;;;;;;;6.68;5.82;;;;;;;17.56;84.03;95090.19;5004232;28;20232;-63
2023/05/31 01:53:37;;;;;;;6.35;5.85;;;;;;;17.49;83.94;95082.03;5006045;28;20293;-62
2023/05/31 01:56:05;;;;;;;6.13;4.95;;;;;;;17.62;83.86;95100.91;5007259;28;20487;-64
2023/05/31 01:58:32;;;;;;;5.70;5.30;;;;;;;17.58;84.15;95102.00;5007211;28;20210;-63
2023/05/31 02:00:59;;;;;;;5.47;4.97;;;;;;;17.51;84.35;95098.19;5006207;28;20211;-61
2023/05/31 02:03:28;;;;;;;5.35;4.95;;;;;;;17.51;84.65;95102.50;5003913;28;20264;-64
2023/05/31 02:05:55;;;;;;;6.72;4.70;;;;;;;17.48;84.74;95098.34;5004747;28;20248;-64
2023/05/31 02:08:23;;;;;;;6.78;4.80;;;;;;;17.45;84.89;95098.53;5002925;28;20233;-64
2023/05/31 02:10:49;;;;;;;5.03;4.63;;;;;;;17.43;84.79;95105.50;5006338;28;20574;-66
2023/05/31 02:13:16;;;;;;;6.18;5.22;;;;;;;17.45;84.75;95108.81;5008151;28;20760;-64
2023/05/31 02:15:43;;;;;;;5.63;4.97;;;;;;;17.44;84.74;95102.03;5007533;28;20297;-66
2023/05/31 02:18:10;;;;;;;6.97;4.85;;;;;;;17.44;84.66;95107.16;5007177;28;20818;-63
2023/05/31 02:20:38;;;;;;;5.10;4.70;;;;;;;17.44;84.83;95111.47;5007325;28;20631;-63
2023/05/31 02:23:05;;;;;;;6.13;5.70;;;;;;;17.45;84.77;95102.84;5005626;28;20230;-65
2023/05/31 02:25:31;;;;;;;5.53;5.05;;;;;;;17.43;84.79;95104.69;4996350;28;20205;-64
2023/05/31 02:28:00;;;;;;;5.82;5.32;;;;;;;17.40;84.98;95110.81;4998622;28;22116;-63
2023/05/31 02:30:27;;;;;;;5.95;5.38;;;;;;;17.36;85.09;95104.22;5000800;28;20220;-64
2023/05/31 02:32:54;;;;;;;7.85;5.30;;;;;;;17.31;84.94;95101.94;5004573;28;20813;-64
2023/05/31 02:35:21;;;;;;;8.02;5.57;;;;;;;17.33;85.30;95100.06;5004934;28;21405;-63
2023/05/31 02:37:49;;;;;;;9.15;6.53;;;;;;;17.32;85.67;95113.03;4988005;22;20906;-61
2023/05/31 02:40:16;;;;;;;7.97;6.18;;;;;;;17.34;85.51;95106.03;4969426;28;20211;-60
2023/05/31 02:42:44;;;;;;;6.43;5.80;;;;;;;17.34;85.38;95111.19;4974807;28;20227;-61
2023/05/31 02:45:11;;;;;;;5.82;5.20;;;;;;;17.37;85.08;95105.88;4971675;28;20352;-61
2023/05/31 02:47:39;;;;;;;7.18;5.88;;;;;;;17.39;84.97;95098.91;4970835;28;20432;-61
2023/05/31 02:50:08;;;;;;;6.63;6.07;;;;;;;17.36;85.34;95099.06;4968204;28;20316;-61
2023/05/31 02:52:34;;;;;;;5.55;5.05;;;;;;;17.39;85.15;95098.06;4969536;28;20276;-61
2023/05/31 02:55:02;;;;;;;5.80;5.32;;;;;;;17.38;85.10;95097.25;4974199;28;20338;-61
2023/05/31 02:57:29;;;;;;;8.18;5.45;;;;;;;17.38;85.14;95096.41;4975192;28;20214;-61
2023/05/31 02:59:58;;;;;;;7.20;5.80;;;;;;;17.37;85.23;95099.91;4974842;28;20207;-61
2023/05/31 03:02:25;;;;;;;6.70;6.15;;;;;;;17.38;85.34;95107.53;4974491;28;20235;-62
2023/05/31 03:04:52;;;;;;;9.13;5.68;;;;;;;17.39;85.37;95103.22;4973751;28;20237;-61
2023/05/31 03:07:19;;;;;;;7.10;6.45;;;;;;;17.41;85.25;95103.94;4970503;28;20365;-61
2023/05/31 03:09:45;;;;;;;9.77;6.13;;;;;;;17.37;85.39;95105.88;4969935;28;20207;-60
2023/05/31 03:12:13;;;;;;;6.55;6.13;;;;;;;17.38;85.17;95112.66;4989837;28;20203;-63
2023/05/31 03:14:40;;;;;;;8.52;6.55;;;;;;;17.43;85.06;95113.22;5012027;28;20314;-62
2023/05/31 03:17:07;;;;;;;7.20;6.53;;;;;;;17.41;85.38;95111.66;5011781;28;20337;-63
2023/05/31 03:19:34;;;;;;;7.65;6.35;;;;;;;17.37;85.29;95116.13;5011048;28;20334;-62
2023/05/31 03:22:01;;;;;;;7.00;5.97;;;;;;;17.37;85.54;95121.28;5009715;28;20254;-63
2023/05/31 03:24:28;;;;;;;6.65;6.15;;;;;;;17.36;85.58;95119.63;5010607;28;20322;-62
2023/05/31 03:26:55;;;;;;;7.13;6.47;;;;;;;17.38;85.66;95116.97;5011021;28;20206;-64
2023/05/31 03:29:23;;;;;;;6.65;6.05;;;;;;;17.39;85.87;95118.63;5011599;28;20211;-62
2023/05/31 03:31:50;;;;;;;6.60;5.93;;;;;;;17.41;85.75;95122.75;5011072;28;20306;-64
2023/05/31 03:34:17;;;;;;;13.10;5.72;;;;;;;17.45;85.53;95123.41;5011968;28;20286;-60
2023/05/31 03:36:43;;;;;;;8.43;6.60;;;;;;;17.48;85.39;95129.19;5011256;28;20376;-63
2023/05/31 03:39:10;;;;;;;6.20;5.70;;;;;;;17.50;85.05;95119.66;5011077;28;20290;-63
2023/05/31 03:41:37;;;;;;;6.47;5.88;;;;;;;17.53;85.02;95122.03;5010575;28;20206;-64
2023/05/31 03:44:03;;;;;;;6.97;6.32;;;;;;;17.56;84.93;95127.00;5011393;28;20795;-62
2023/05/31 03:46:31;;;;;;;6.38;5.78;;;;;;;17.57;84.92;95122.69;5011313;28;20320;-63
2023/05/31 03:48:58;;;;;;;6.05;5.53;;;;;;;17.58;84.87;95132.03;5011758;28;20360;-61
2023/05/31 03:51:25;;;;;;;9.75;6.10;;;;;;;17.61;84.72;95137.81;5009586;28;20346;-62
2023/05/31 03:53:51;;;;;;;21.83;17.77;;;;;;;17.64;84.60;95135.09;5010309;28;20330;-62
2023/05/31 03:56:18;;;;;;;49.03;30.77;;;;;;;17.65;84.53;95134.16;5010650;28;20298;-63
2023/05/31 03:58:45;;;;;;;26.05;18.15;;;;;;;17.68;84.57;95136.56;5011021;28;20368;-62
2023/05/31 04:01:11;;;;;;;14.73;11.02;;;;;;;17.72;84.31;95136.38;5009830;28;20768;-63
2023/05/31 04:03:39;;;;;;;12.70;8.95;;;;;;;17.79;84.12;95137.66;5010794;28;20664;-62
2023/05/31 04:06:06;;;;;;;11.15;7.50;;;;;;;17.82;84.25;95134.88;5011334;28;20989;-63
2023/05/31 04:08:33;;;;;;;8.07;6.88;;;;;;;17.93;83.71;95135.06;5011301;28;20214;-63
2023/05/31 04:11:00;;;;;;;11.73;6.88;;;;;;;17.94;83.64;95139.28;5011300;28;20322;-63
2023/05/31 04:13:26;;;;;;;11.07;9.35;;;;;;;17.99;83.41;95137.28;5009957;28;20227;-63
2023/05/31 04:15:53;;;;;;;26.73;19.85;;;;;;;18.06;82.82;95143.69;5009837;28;20285;-62
2023/05/31 04:18:19;;;;;;;17.27;10.35;;;;;;;18.09;83.03;95143.47;5010868;28;20304;-63
2023/05/31 04:20:48;;;;;;;11.85;8.32;;;;;;;18.16;83.03;95141.38;5011527;28;20285;-62
2023/05/31 04:23:14;;;;;;;10.98;8.18;;;;;;;18.16;81.43;95139.63;5009837;28;20353;-62
2023/05/31 04:25:41;;;;;;;7.88;7.22;;;;;;;17.84;82.41;95146.72;5010417;28;20223;-64
2023/05/31 04:28:08;;;;;;;8.35;7.35;;;;;;;17.89;82.58;95155.00;5008544;28;20206;-62
2023/05/31 04:30:34;;;;;;;8.45;7.57;;;;;;;17.95;82.31;95157.19;5007928;28;20297;-62
2023/05/31 04:33:04;;;;;;;9.05;8.23;;;;;;;18.00;82.02;95159.50;5007511;28;20662;-63
2023/05/31 04:35:32;;;;;;;8.35;7.28;;;;;;;18.15;82.21;95160.28;5008740;28;20203;-63
2023/05/31 04:38:02;;;;;;;13.70;7.47;;;;;;;18.24;80.77;95162.31;5009001;28;20203;-63
2023/05/31 04:40:31;;;;;;;8.43;7.70;;;;;;;18.18;80.59;95168.66;5009391;28;20314;-62
2023/05/31 04:42:58;;;;;;;10.05;7.53;;;;;;;18.35;80.01;95165.84;5008584;28;20230;-62
2023/05/31 04:45:25;;;;;;;20.90;13.40;;;;;;;18.45;80.22;95167.84;5009314;28;20349;-62
2023/05/31 04:47:52;;;;;;;17.63;12.13;;;;;;;18.59;80.02;95170.38;5010569;28;20293;-62
2023/05/31 04:50:19;;;;;;;10.73;8.73;;;;;;;18.72;80.13;95173.88;5009807;28;20414;-63
2023/05/31 04:52:46;;;;;;;10.65;7.15;;;;;;;18.86;78.57;95168.66;5009330;28;20207;-61
2023/05/31 04:55:15;;;;;;;9.35;7.70;;;;;;;18.67;78.79;95170.75;5010621;28;20203;-63
2023/05/31 04:57:41;;;;;;;7.97;7.35;;;;;;;18.81;78.07;95175.84;5009889;28;20558;-64
2023/05/31 05:00:10;;;;;;;8.45;7.60;;;;;;;19.00;77.90;95176.34;5009722;28;20754;-62
2023/05/31 05:02:36;;;;;;;15.45;8.02;;;;;;;19.22;75.95;95174.94;5008141;28;20209;-63
2023/05/31 05:05:05;;;;;;;9.48;8.10;;;;;;;19.25;76.59;95172.97;5008407;28;20686;-62
2023/05/31 05:07:31;;;;;;;13.95;7.80;;;;;;;19.43;76.90;95183.00;5009402;28;20221;-62
2023/05/31 05:09:58;;;;;;;9.18;6.90;;;;;;;19.58;76.44;95177.66;5010331;28;21156;-63
2023/05/31 05:12:26;;;;;;;7.07;6.43;;;;;;;19.59;76.65;95181.88;5009011;28;20768;-63
2023/05/31 05:14:52;;;;;;;14.20;8.10;;;;;;;19.69;76.25;95193.25;5010551;28;20286;-62
2023/05/31 05:17:20;;;;;;;10.52;7.82;;;;;;;19.76;76.04;95183.34;5010391;28;20293;-62
2023/05/31 05:19:47;;;;;;;9.30;8.15;;;;;;;19.94;75.05;95189.84;5008478;28;20625;-63
2023/05/31 05:22:14;;;;;;;8.55;7.82;;;;;;;20.10;74.34;95199.91;5009453;28;20207;-62
2023/05/31 05:24:40;;;;;;;10.88;8.57;;;;;;;20.23;74.16;95200.75;5008042;28;20238;-60
2023/05/31 05:27:08;;;;;;;10.60;8.52;;;;;;;20.32;73.23;95204.41;5008343;28;21888;-62
2023/05/31 05:29:36;;;;;;;14.85;9.75;;;;;;;20.45;72.51;95207.00;5013071;28;20239;-62
2023/05/31 05:32:02;;;;;;;12.98;7.90;;;;;;;20.40;72.83;95204.75;5013049;28;20429;-61
2023/05/31 05:34:29;;;;;;;16.30;7.57;;;;;;;20.50;72.92;95207.53;5012663;28;20341;-63
2023/05/31 05:36:57;;;;;;;10.63;7.68;;;;;;;20.56;72.27;95201.91;5012203;28;20230;-62
2023/05/31 05:39:23;;;;;;;8.98;7.30;;;;;;;20.63;71.62;95197.97;5012746;28;20272;-62
2023/05/31 05:41:50;;;;;;;10.88;7.90;;;;;;;20.63;71.83;95205.72;5013023;28;20241;-64
2023/05/31 05:44:17;;;;;;;9.60;8.30;;;;;;;20.66;71.07;95213.25;5014316;28;20308;-63
2023/05/31 05:46:45;;;;;;;9.10;7.53;;;;;;;20.74;71.08;95210.94;5013320;28;20242;-64
2023/05/31 05:49:12;;;;;;;9.18;6.82;;;;;;;20.94;70.65;95210.34;5013311;28;20297;-63
2023/05/31 05:51:38;;;;;;;11.23;7.43;;;;;;;21.17;70.07;95207.84;5012806;28;20762;-61
2023/05/31 05:54:05;;;;;;;11.30;7.25;;;;;;;21.34;69.32;95204.88;5014519;28;20206;-62
2023/05/31 05:56:32;;;;;;;9.27;7.10;;;;;;;21.51;68.95;95211.41;5011651;28;20209;-63
2023/05/31 05:58:59;;;;;;;9.45;8.25;;;;;;;21.71;67.79;95213.34;5014010;28;20226;-62
2023/05/31 06:01:26;;;;;;;14.48;7.90;;;;;;;21.95;67.09;95201.13;5013646;28;20378;-62
2023/05/31 06:03:55;;;;;;;10.95;7.70;;;;;;;22.13;66.53;95211.88;5012893;28;20223;-62
2023/05/31 06:06:22;;;;;;;11.85;8.25;;;;;;;22.30;64.17;95213.16;5012469;28;20207;-62
2023/05/31 06:08:49;;;;;;;8.77;7.95;;;;;;;22.17;64.09;95210.69;5012446;28;20894;-63
2023/05/31 06:11:18;;;;;;;7.97;7.20;;;;;;;22.22;64.30;95208.59;5012394;28;20294;-62
2023/05/31 06:13:45;;;;;;;8.05;7.38;;;;;;;22.34;64.19;95211.97;5014085;28;20203;-62
2023/05/31 06:16:11;;;;;;;8.65;7.82;;;;;;;22.22;63.77;95207.75;5011496;28;20218;-60
2023/05/31 06:18:38;;;;;;;13.85;8.35;;;;;;;21.99;65.01;95212.06;5013346;28;20234;-62
2023/05/31 06:21:06;;;;;;;9.52;7.75;;;;;;;22.07;65.22;95209.75;5012831;28;20325;-62
2023/05/31 06:23:34;;;;;;;8.80;7.90;;;;;;;22.09;64.04;95215.63;5013852;28;20199;-61
2023/05/31 06:26:00;;;;;;;9.45;8.63;;;;;;;22.18;64.17;95216.69;5010463;28;20222;-63
2023/05/31 06:28:27;;;;;;;8.90;7.75;;;;;;;22.21;64.36;95206.94;5010878;28;20210;-62
2023/05/31 06:30:54;;;;;;;10.30;8.02;;;;;;;22.34;64.25;95217.97;5009608;28;20338;-63
2023/05/31 06:33:20;;;;;;;9.32;7.32;;;;;;;22.34;64.28;95220.56;5009699;28;20298;-62
2023/05/31 06:35:47;;;;;;;11.75;7.47;;;;;;;22.47;63.77;95211.84;5010490;28;20207;-64
2023/05/31 06:38:16;;;;;;;8.18;7.43;;;;;;;22.62;62.98;95215.81;5010139;28;20294;-64
2023/05/31 06:40:43;;;;;;;8.85;8.02;;;;;;;22.88;61.76;95212.03;5010889;28;21565;-62
2023/05/31 06:43:10;;;;;;;8.38;7.55;;;;;;;22.97;61.26;95211.31;5011157;28;20624;-63
2023/05/31 06:45:41;;;;;;;8.88;7.80;;;;;;;23.05;61.27;95210.66;5011158;28;20230;-63
2023/05/31 06:48:08;;;;;;;9.05;8.27;;;;;;;22.85;61.92;95214.03;5011317;28;20910;-62
2023/05/31 06:50:34;;;;;;;10.23;7.85;;;;;;;22.91;61.62;95213.56;5012699;28;20254;-61
2023/05/31 06:53:01;;;;;;;9.32;8.43;;;;;;;23.02;61.57;95206.56;5012892;28;20419;-60
2023/05/31 06:55:29;;;;;;;10.35;7.43;;;;;;;23.18;59.83;95213.13;5012680;28;20264;-62
2023/05/31 06:57:56;;;;;;;9.05;7.63;;;;;;;22.83;61.10;95208.97;5009865;28;20294;-63
2023/05/31 07:00:22;;;;;;;11.55;6.95;;;;;;;22.81;61.62;95220.41;5011849;28;20754;-63
2023/05/31 07:02:49;;;;;;;8.63;6.90;;;;;;;22.80;61.26;95211.81;5010620;28;20305;-63
2023/05/31 07:05:16;;;;;;;8.23;6.57;;;;;;;22.97;61.53;95208.72;5011806;28;20321;-62
2023/05/31 07:07:42;;;;;;;15.68;7.47;;;;;;;23.27;60.43;95217.53;5010967;28;20284;-63
2023/05/31 07:10:10;;;;;;;10.82;8.10;;;;;;;23.12;60.04;95213.59;5010600;28;20296;-64
2023/05/31 07:12:38;;;;;;;9.02;8.23;;;;;;;22.96;60.94;95212.25;5011380;28;20294;-62
2023/05/31 07:15:05;;;;;;;9.88;7.35;;;;;;;22.95;61.19;95208.00;5011757;28;20253;-64
2023/05/31 07:17:32;;;;;;;9.15;7.07;;;;;;;23.15;60.88;95218.53;5010048;28;20722;-59
2023/05/31 07:19:58;;;;;;;10.38;6.75;;;;;;;23.35;60.63;95210.78;5010707;28;22166;-62
2023/05/31 07:22:25;;;;;;;6.43;5.82;;;;;;;23.51;59.77;95212.94;5010790;28;20289;-62
2023/05/31 07:24:52;;;;;;;7.07;6.40;;;;;;;23.39;59.54;95211.38;5010061;28;20317;-63
2023/05/31 07:27:19;;;;;;;7.65;6.82;;;;;;;22.79;59.83;95212.75;5011356;28;20211;-63
2023/05/31 07:29:47;;;;;;;7.18;6.43;;;;;;;22.68;60.85;95210.16;5010692;28;20281;-62
2023/05/31 07:32:14;;;;;;;7.03;6.30;;;;;;;22.39;61.32;95205.50;5011569;28;20417;-62
2023/05/31 07:34:41;;;;;;;6.90;6.22;;;;;;;22.45;61.85;95203.38;5010927;28;20293;-63
2023/05/31 07:37:08;;;;;;;8.63;6.50;;;;;;;22.72;61.90;95207.22;5010227;28;21826;-62
2023/05/31 07:39:35;;;;;;;6.22;5.82;;;;;;;22.96;60.44;95201.88;5010997;28;20207;-62
2023/05/31 07:42:02;;;;;;;8.60;6.93;;;;;;;23.13;58.68;95210.06;5011616;28;20234;-63
2023/05/31 07:44:28;;;;;;;10.85;7.47;;;;;;;23.24;59.24;95208.25;5012287;28;20321;-61
2023/05/31 07:46:56;;;;;;;7.55;6.85;;;;;;;23.04;59.41;95201.25;5011507;28;20557;-64
2023/05/31 07:49:23;;;;;;;7.43;6.82;;;;;;;23.07;60.47;95206.19;5010561;28;20300;-63
2023/05/31 07:51:50;;;;;;;10.30;6.78;;;;;;;23.10;60.61;95205.13;5009936;28;20254;-65
2023/05/31 07:54:16;;;;;;;10.35;6.45;;;;;;;23.49;59.53;95195.88;4999255;28;20206;-64
2023/05/31 07:56:43;;;;;;;8.18;6.90;;;;;;;23.63;58.42;95211.16;5001215;28;20294;-62
2023/05/31 07:59:10;;;;;;;10.07;6.32;;;;;;;23.89;58.47;95208.97;5010804;28;20320;-61
2023/05/31 08:01:36;;;;;;;12.02;9.90;;;;;;;23.97;57.74;95203.97;5010799;28;21113;-60
2023/05/31 08:04:08;;;;;;;9.80;6.70;;;;;;;23.95;57.87;95200.69;5010703;28;20219;-62
2023/05/31 08:06:36;;;;;;;6.80;6.28;;;;;;;23.66;58.11;95203.13;5011253;28;20290;-61
2023/05/31 08:09:03;;;;;;;7.47;6.38;;;;;;;23.54;57.91;95210.13;5009912;28;20215;-63
2023/05/31 08:11:31;;;;;;;9.23;6.63;;;;;;;23.71;58.03;95204.38;5011139;28;20557;-63
2023/05/31 08:13:58;;;;;;;10.20;7.50;;;;;;;24.12;56.79;95199.25;5009825;28;20783;-62
2023/05/31 08:16:24;;;;;;;13.25;7.38;;;;;;;24.63;55.65;95194.00;5011811;28;20227;-63
2023/05/31 08:18:51;;;;;;;7.75;6.22;;;;;;;25.15;55.03;95194.63;5011123;28;20317;-65
2023/05/31 08:21:19;;;;;;;10.27;6.60;;;;;;;25.49;53.98;95192.44;5010070;28;20288;-61
2023/05/31 08:23:46;;;;;;;6.55;5.95;;;;;;;25.47;53.07;95194.34;5010560;28;20317;-63
2023/05/31 08:26:12;;;;;;;8.43;7.65;;;;;;;25.62;53.00;95193.78;5010004;28;20700;-62
2023/05/31 08:28:39;;;;;;;8.10;6.90;;;;;;;26.02;52.08;95184.91;5007630;28;20966;-64
2023/05/31 08:31:06;;;;;;;8.63;6.18;;;;;;;26.62;51.34;95193.19;5010171;28;20293;-64
2023/05/31 08:33:32;;;;;;;8.73;6.80;;;;;;;27.15;50.05;95185.47;5011405;28;20302;-66
2023/05/31 08:36:00;;;;;;;8.65;6.90;;;;;;;27.33;48.20;95182.84;5011153;28;20227;-63
2023/05/31 08:38:28;;;;;;;11.07;6.82;;;;;;;27.60;48.10;95184.56;5009846;28;20203;-63
2023/05/31 08:40:57;;;;;;;12.00;6.25;;;;;;;28.30;47.05;95175.69;5009346;28;20207;-65
2023/05/31 08:43:26;;;;;;;7.50;6.00;;;;;;;29.14;44.51;95171.38;5007928;28;21115;-63
2023/05/31 08:45:53;;;;;;;8.93;5.50;;;;;;;29.74;43.26;95164.00;5009900;28;20322;-62
2023/05/31 08:48:26;;;;;;;6.90;6.35;;;;;;;29.64;44.00;95164.22;5009775;28;20277;-63
2023/05/31 08:50:54;;;;;;;7.30;6.70;;;;;;;29.26;44.74;95170.06;5010503;28;20310;-63
2023/05/31 08:53:24;;;;;;;6.20;5.70;;;;;;;29.16;44.39;95157.16;5010220;28;20301;-63
2023/05/31 08:55:53;;;;;;;7.47;6.50;;;;;;;29.44;43.42;95157.69;5010024;28;20581;-63
2023/05/31 08:58:21;;;;;;;14.15;6.97;;;;;;;28.92;44.21;95157.94;5008856;28;20256;-64
2023/05/31 09:00:49;;;;;;;5.55;5.07;;;;;;;28.63;43.76;95147.06;5009747;28;20284;-63
2023/05/31 09:03:16;;;;;;;5.60;5.22;;;;;;;30.17;41.93;95141.03;5011604;28;20199;-63
2023/05/31 09:05:42;;;;;;;5.30;4.90;;;;;;;34.50;34.90;95126.91;5013868;28;20223;-65
2023/05/31 09:08:09;;;;;;;17.83;5.43;;;;;;;36.55;29.29;95131.28;5014230;28;20310;-63
2023/05/31 09:10:36;;;;;;;6.38;5.60;;;;;;;33.44;32.39;95127.00;5012266;28;20203;-63
2023/05/31 09:13:06;;;;;;;5.38;5.03;;;;;;;29.48;39.80;95129.34;5012835;28;20284;-62
2023/05/31 09:15:38;;;;;;;5.70;5.00;;;;;;;26.58;45.69;95129.28;5013487;28;20229;-61
2023/05/31 09:18:15;;;;;;;8.35;5.55;;;;;;;26.97;46.40;95119.44;5012742;28;20823;-61
2023/05/31 09:20:42;;;;;;;4.82;4.50;;;;;;;30.35;39.42;95121.44;5014262;28;20210;-62
2023/05/31 09:23:10;;;;;;;5.40;4.90;;;;;;;32.83;34.79;95115.28;5013354;28;21776;-59
2023/05/31 09:25:46;;;;;;;4.95;4.47;;;;;;;32.24;35.87;95110.13;5013575;28;20309;-63
2023/05/31 09:28:15;;;;;;;9.20;3.90;;;;;;;30.18;38.04;95114.66;5014007;28;20416;-64
2023/05/31 09:30:43;;;;;;;4.25;3.95;;;;;;;29.18;38.83;95104.66;5013767;28;20289;-60
2023/05/31 09:33:10;;;;;;;4.30;3.90;;;;;;;29.55;39.34;95091.84;5012423;28;20806;-62
2023/05/31 09:35:37;;;;;;;4.65;4.30;;;;;;;29.65;39.81;95102.16;5012900;28;20199;-61
2023/05/31 09:38:08;;;;;;;5.47;4.90;;;;;;;30.71;38.99;95103.41;5012386;28;20211;-63
2023/05/31 09:40:34;;;;;;;3.70;3.50;;;;;;;28.54;41.03;95125.28;5013632;28;20285;-62
2023/05/31 09:43:01;;;;;;;5.13;4.18;;;;;;;26.58;44.51;95111.88;5013503;28;20210;-64
2023/05/31 09:45:29;;;;;;;4.57;4.18;;;;;;;25.63;47.11;95117.38;5014016;28;20385;-61
2023/05/31 09:47:56;;;;;;;6.22;4.00;;;;;;;25.21;49.01;95114.28;5013206;28;20225;-63
2023/05/31 09:50:24;;;;;;;4.30;4.00;;;;;;;24.77;50.56;95102.63;5013025;28;20229;-62
2023/05/31 09:52:57;;;;;;;4.38;4.05;;;;;;;24.58;51.51;95097.41;5011755;28;20325;-61
2023/05/31 09:55:24;;;;;;;4.78;4.47;;;;;;;24.18;52.75;95102.66;5012490;28;20783;-60
2023/05/31 09:57:55;;;;;;;5.38;4.90;;;;;;;24.37;52.12;95092.34;5013374;28;20428;-61
2023/05/31 10:00:22;;;;;;;5.03;4.63;;;;;;;24.46;51.19;95103.72;5012886;28;20673;-62
2023/05/31 10:02:51;;;;;;;11.68;5.15;;;;;;;24.26;52.49;95098.47;5012521;28;20214;-62
2023/05/31 10:05:19;;;;;;;4.65;4.32;;;;;;;24.42;52.34;95109.16;5012735;28;20231;-61
2023/05/31 10:07:48;;;;;;;4.30;3.90;;;;;;;24.63;51.56;95110.84;5012106;28;20325;-62
2023/05/31 10:10:17;;;;;;;4.78;4.38;;;;;;;24.62;51.04;95109.19;5012650;28;20302;-60
2023/05/31 10:12:51;;;;;;;4.45;4.15;;;;;;;24.72;51.40;95104.84;5011565;28;20203;-62
2023/05/31 10:15:19;;;;;;;12.88;4.35;;;;;;;24.80;52.09;95097.16;5011390;28;20330;-60
2023/05/31 10:17:54;;;;;;;5.38;4.90;;;;;;;25.23;51.88;95090.75;5012627;28;20203;-61
2023/05/31 10:20:22;;;;;;;5.30;4.25;;;;;;;25.11;50.64;95097.03;5011494;28;20210;-63
2023/05/31 10:22:51;;;;;;;8.38;4.70;;;;;;;24.84;50.37;95101.13;5012306;28;20207;-61
2023/05/31 10:25:25;;;;;;;4.72;4.32;;;;;;;24.37;52.11;95103.56;5012129;28;20368;-60
2023/05/31 10:27:54;;;;;;;6.03;4.30;;;;;;;24.20;52.85;95087.78;5012593;28;20199;-62
2023/05/31 10:30:25;;;;;;;7.10;4.07;;;;;;;23.95;54.12;95083.88;5010789;28;20353;-61
2023/05/31 10:33:00;;;;;;;5.28;4.78;;;;;;;24.04;54.12;95076.09;5012780;28;20591;-62
2023/05/31 10:35:27;;;;;;;5.63;4.60;;;;;;;24.39;53.78;95078.25;5011392;28;20599;-60
2023/05/31 10:37:56;;;;;;;5.57;4.13;;;;;;;24.46;52.84;95073.34;5010391;28;20731;-60
2023/05/31 10:40:29;;;;;;;8.23;5.13;;;;;;;24.24;53.68;95087.41;5011178;28;20207;-60
2023/05/31 10:43:01;;;;;;;6.13;5.32;;;;;;;24.38;53.41;95081.81;5010988;28;20207;-61
2023/05/31 10:45:35;;;;;;;5.40;4.90;;;;;;;24.66;53.36;95079.38;5010634;28;20223;-61
2023/05/31 10:48:13;;;;;;;5.53;5.03;;;;;;;24.48;53.31;95075.81;5012532;28;20210;-61
2023/05/31 10:50:52;;;;;;;5.50;4.95;;;;;;;24.44;54.34;95080.47;5012278;28;20313;-66
2023/05/31 10:53:19;;;;;;;5.95;4.18;;;;;;;24.38;52.03;95066.22;5011338;28;20361;-62
2023/05/31 10:55:48;;;;;;;4.93;4.28;;;;;;;24.31;52.50;95091.09;5010647;28;20289;-61
2023/05/31 10:58:29;;;;;;;7.45;4.85;;;;;;;24.26;52.79;95082.06;5012778;28;20329;-60
2023/05/31 11:00:56;;;;;;;6.43;5.18;;;;;;;24.11;51.73;95086.78;5012018;28;20292;-59
2023/05/31 11:03:27;;;;;;;3.47;3.20;;;;;;;23.94;49.45;95087.44;5011997;28;20298;-60
2023/05/31 11:05:59;;;;;;;6.53;3.42;;;;;;;24.01;50.80;95084.16;5009868;28;20231;-64
2023/05/31 11:08:26;;;;;;;5.22;3.42;;;;;;;24.08;51.29;95076.66;5011364;28;20203;-62
2023/05/31 11:10:53;;;;;;;4.90;3.88;;;;;;;23.99;52.16;95082.66;5010667;28;20302;-60
2023/05/31 11:13:19;;;;;;;7.03;3.92;;;;;;;24.05;53.62;95079.53;5011304;28;20361;-61
2023/05/31 11:15:47;;;;;;;4.10;3.47;;;;;;;23.86;55.25;95079.47;5010834;28;20204;-62
2023/05/31 11:18:16;;;;;;;5.90;4.18;;;;;;;23.66;55.21;95074.22;5012429;28;20218;-60
2023/05/31 11:20:44;;;;;;;3.90;3.60;;;;;;;23.52;55.28;95079.72;5010716;28;21736;-59
2023/05/31 11:23:35;;;;;;;5.32;4.20;;;;;;;23.59;55.94;95078.25;5012458;28;20245;-62
2023/05/31 11:26:15;;;;;;;4.88;4.47;;;;;;;23.80;55.38;95067.00;4990027;28;20288;-61
2023/05/31 11:28:52;;;;;;;5.40;4.25;;;;;;;24.10;55.14;95059.19;5010597;28;20215;-61
2023/05/31 11:31:59;;;;;;;4.90;4.50;;;;;;;24.16;55.99;95053.47;5010942;28;20285;-62
2023/05/31 11:34:27;;;;;;;4.13;3.83;;;;;;;24.27;54.17;95053.34;5009962;28;20746;-61
2023/05/31 11:36:58;;;;;;;5.68;5.10;;;;;;;23.98;54.26;95065.44;5009928;28;20234;-62